sensor_id;sensor_type;location;lat;lon;timestamp;P1;durP1;ratioP1;P2;durP2;ratioP2
66175;SDS011;52977;44.816;20.538;2023-03-26T00:01:07;4.72;;;2.00;;
66175;SDS011;52977;44.816;20.538;2023-03-26T00:03:35;3.88;;;2.20;;
66175;SDS011;52977;44.816;20.538;2023-03-26T00:06:04;4.57;;;2.10;;
66175;SDS011;52977;44.816;20.538;2023-03-26T00:08:36;6.95;;;2.10;;
66175;SDS011;52977;44.816;20.538;2023-03-26T00:11:03;6.22;;;2.40;;
66175;SDS011;52977;44.816;20.538;2023-03-26T00:13:31;4.82;;;2.17;;
66175;SDS011;52977;44.816;20.538;2023-03-26T00:15:58;5.53;;;2.38;;
66175;SDS011;52977;44.816;20.538;2023-03-26T00:18:25;7.53;;;2.20;;
66175;SDS011;52977;44.816;20.538;2023-03-26T00:21:03;4.15;;;2.08;;
66175;SDS011;52977;44.816;20.538;2023-03-26T00:25:57;4.25;;;2.10;;
66175;SDS011;52977;44.816;20.538;2023-03-26T00:28:23;5.47;;;2.40;;
66175;SDS011;52977;44.816;20.538;2023-03-26T00:30:49;5.78;;;2.47;;
66175;SDS011;52977;44.816;20.538;2023-03-26T00:33:21;6.90;;;2.55;;
66175;SDS011;52977;44.816;20.538;2023-03-26T00:35:54;6.20;;;2.50;;
66175;SDS011;52977;44.816;20.538;2023-03-26T00:38:23;6.18;;;2.72;;
66175;SDS011;52977;44.816;20.538;2023-03-26T00:40:50;5.80;;;2.55;;
66175;SDS011;52977;44.816;20.538;2023-03-26T00:43:17;6.10;;;2.63;;
66175;SDS011;52977;44.816;20.538;2023-03-26T00:45:51;8.73;;;2.60;;
66175;SDS011;52977;44.816;20.538;2023-03-26T00:48:18;5.05;;;2.65;;
66175;SDS011;52977;44.816;20.538;2023-03-26T00:50:45;6.45;;;2.70;;
66175;SDS011;52977;44.816;20.538;2023-03-26T00:53:12;6.45;;;2.80;;
66175;SDS011;52977;44.816;20.538;2023-03-26T00:55:39;6.53;;;2.40;;
66175;SDS011;52977;44.816;20.538;2023-03-26T00:58:05;9.02;;;3.67;;
66175;SDS011;52977;44.816;20.538;2023-03-26T01:00:38;6.65;;;3.13;;
66175;SDS011;52977;44.816;20.538;2023-03-26T01:03:10;6.85;;;2.90;;
66175;SDS011;52977;44.816;20.538;2023-03-26T01:05:40;7.35;;;3.30;;
66175;SDS011;52977;44.816;20.538;2023-03-26T01:08:12;6.60;;;3.15;;
66175;SDS011;52977;44.816;20.538;2023-03-26T01:10:43;8.95;;;2.90;;
66175;SDS011;52977;44.816;20.538;2023-03-26T01:13:18;7.20;;;2.80;;
66175;SDS011;52977;44.816;20.538;2023-03-26T01:15:46;6.70;;;2.88;;
66175;SDS011;52977;44.816;20.538;2023-03-26T01:18:20;7.10;;;3.15;;
66175;SDS011;52977;44.816;20.538;2023-03-26T01:20:51;5.43;;;2.47;;
66175;SDS011;52977;44.816;20.538;2023-03-26T01:23:35;6.68;;;2.72;;
66175;SDS011;52977;44.816;20.538;2023-03-26T01:29:09;7.07;;;2.88;;
66175;SDS011;52977;44.816;20.538;2023-03-26T01:34:30;4.43;;;2.45;;
66175;SDS011;52977;44.816;20.538;2023-03-26T01:37:18;9.48;;;2.90;;
66175;SDS011;52977;44.816;20.538;2023-03-26T01:39:57;5.90;;;2.55;;
66175;SDS011;52977;44.816;20.538;2023-03-26T01:45:20;5.18;;;2.30;;
66175;SDS011;52977;44.816;20.538;2023-03-26T01:47:49;4.18;;;2.40;;
66175;SDS011;52977;44.816;20.538;2023-03-26T01:50:15;4.90;;;2.60;;
66175;SDS011;52977;44.816;20.538;2023-03-26T01:52:41;6.32;;;2.55;;
66175;SDS011;52977;44.816;20.538;2023-03-26T01:55:07;5.50;;;2.40;;
66175;SDS011;52977;44.816;20.538;2023-03-26T02:07:20;5.07;;;2.45;;
66175;SDS011;52977;44.816;20.538;2023-03-26T02:10:15;5.05;;;2.35;;
66175;SDS011;52977;44.816;20.538;2023-03-26T02:12:47;5.47;;;1.90;;
66175;SDS011;52977;44.816;20.538;2023-03-26T02:15:14;4.57;;;1.90;;
66175;SDS011;52977;44.816;20.538;2023-03-26T02:17:40;4.57;;;2.10;;
66175;SDS011;52977;44.816;20.538;2023-03-26T02:20:06;7.10;;;2.30;;
66175;SDS011;52977;44.816;20.538;2023-03-26T02:22:35;5.43;;;2.13;;
66175;SDS011;52977;44.816;20.538;2023-03-26T02:25:07;6.00;;;2.25;;
66175;SDS011;52977;44.816;20.538;2023-03-26T02:27:35;5.43;;;2.10;;
66175;SDS011;52977;44.816;20.538;2023-03-26T02:30:02;4.88;;;2.08;;
66175;SDS011;52977;44.816;20.538;2023-03-26T02:32:30;5.43;;;2.40;;
66175;SDS011;52977;44.816;20.538;2023-03-26T02:34:55;8.32;;;2.70;;
66175;SDS011;52977;44.816;20.538;2023-03-26T02:37:21;4.90;;;2.30;;
66175;SDS011;52977;44.816;20.538;2023-03-26T02:42:29;4.03;;;1.88;;
66175;SDS011;52977;44.816;20.538;2023-03-26T02:44:55;3.88;;;2.10;;
66175;SDS011;52977;44.816;20.538;2023-03-26T02:47:39;5.80;;;2.67;;
66175;SDS011;52977;44.816;20.538;2023-03-26T02:50:27;6.28;;;2.38;;
66175;SDS011;52977;44.816;20.538;2023-03-26T02:53:35;5.90;;;2.50;;
66175;SDS011;52977;44.816;20.538;2023-03-26T02:56:20;6.00;;;2.30;;
66175;SDS011;52977;44.816;20.538;2023-03-26T02:59:01;4.22;;;1.98;;
66175;SDS011;52977;44.816;20.538;2023-03-26T03:01:27;6.65;;;2.42;;
66175;SDS011;52977;44.816;20.538;2023-03-26T03:03:55;3.75;;;1.95;;
66175;SDS011;52977;44.816;20.538;2023-03-26T03:06:39;6.78;;;2.58;;
66175;SDS011;52977;44.816;20.538;2023-03-26T03:09:05;5.95;;;2.20;;
66175;SDS011;52977;44.816;20.538;2023-03-26T03:11:35;4.70;;;2.25;;
66175;SDS011;52977;44.816;20.538;2023-03-26T03:14:04;5.70;;;2.15;;
66175;SDS011;52977;44.816;20.538;2023-03-26T03:16:31;4.47;;;2.25;;
66175;SDS011;52977;44.816;20.538;2023-03-26T03:19:02;6.22;;;2.60;;
66175;SDS011;52977;44.816;20.538;2023-03-26T03:21:37;4.82;;;2.50;;
66175;SDS011;52977;44.816;20.538;2023-03-26T03:24:04;4.88;;;2.03;;
66175;SDS011;52977;44.816;20.538;2023-03-26T03:26:34;5.97;;;2.72;;
66175;SDS011;52977;44.816;20.538;2023-03-26T03:29:11;4.68;;;2.08;;
66175;SDS011;52977;44.816;20.538;2023-03-26T03:31:38;4.45;;;2.13;;
66175;SDS011;52977;44.816;20.538;2023-03-26T03:34:14;6.30;;;2.20;;
66175;SDS011;52977;44.816;20.538;2023-03-26T03:36:45;3.47;;;1.67;;
66175;SDS011;52977;44.816;20.538;2023-03-26T03:39:26;3.47;;;1.63;;
66175;SDS011;52977;44.816;20.538;2023-03-26T03:41:52;4.07;;;1.67;;
66175;SDS011;52977;44.816;20.538;2023-03-26T03:44:19;6.38;;;2.05;;
66175;SDS011;52977;44.816;20.538;2023-03-26T03:46:45;5.50;;;2.13;;
66175;SDS011;52977;44.816;20.538;2023-03-26T03:49:13;3.88;;;1.67;;
66175;SDS011;52977;44.816;20.538;2023-03-26T03:51:40;5.25;;;2.10;;
66175;SDS011;52977;44.816;20.538;2023-03-26T03:54:21;4.60;;;2.13;;
66175;SDS011;52977;44.816;20.538;2023-03-26T03:57:10;5.07;;;2.28;;
66175;SDS011;52977;44.816;20.538;2023-03-26T03:59:47;5.72;;;2.78;;
66175;SDS011;52977;44.816;20.538;2023-03-26T04:02:15;6.15;;;2.45;;
66175;SDS011;52977;44.816;20.538;2023-03-26T04:04:56;4.55;;;1.95;;
66175;SDS011;52977;44.816;20.538;2023-03-26T04:07:23;4.30;;;2.03;;
66175;SDS011;52977;44.816;20.538;2023-03-26T04:10:06;6.97;;;2.30;;
66175;SDS011;52977;44.816;20.538;2023-03-26T04:12:53;4.90;;;2.30;;
66175;SDS011;52977;44.816;20.538;2023-03-26T04:15:33;5.25;;;2.10;;
66175;SDS011;52977;44.816;20.538;2023-03-26T04:18:01;4.95;;;2.05;;
66175;SDS011;52977;44.816;20.538;2023-03-26T04:20:27;7.43;;;2.80;;
66175;SDS011;52977;44.816;20.538;2023-03-26T04:22:53;5.03;;;2.40;;
66175;SDS011;52977;44.816;20.538;2023-03-26T04:25:23;4.57;;;2.10;;
66175;SDS011;52977;44.816;20.538;2023-03-26T04:28:02;5.45;;;2.20;;
66175;SDS011;52977;44.816;20.538;2023-03-26T04:30:54;5.25;;;2.50;;
66175;SDS011;52977;44.816;20.538;2023-03-26T04:33:45;5.68;;;2.40;;
66175;SDS011;52977;44.816;20.538;2023-03-26T04:36:15;5.13;;;2.50;;
66175;SDS011;52977;44.816;20.538;2023-03-26T04:38:45;4.32;;;2.10;;
66175;SDS011;52977;44.816;20.538;2023-03-26T04:42:10;5.75;;;2.20;;
66175;SDS011;52977;44.816;20.538;2023-03-26T04:44:49;5.70;;;2.65;;
66175;SDS011;52977;44.816;20.538;2023-03-26T04:47:17;6.22;;;2.13;;
66175;SDS011;52977;44.816;20.538;2023-03-26T04:49:45;5.28;;;2.42;;
66175;SDS011;52977;44.816;20.538;2023-03-26T04:52:13;5.55;;;2.63;;
66175;SDS011;52977;44.816;20.538;2023-03-26T04:55:03;6.82;;;2.88;;
66175;SDS011;52977;44.816;20.538;2023-03-26T04:57:36;6.50;;;3.17;;
66175;SDS011;52977;44.816;20.538;2023-03-26T05:00:30;6.57;;;2.60;;
66175;SDS011;52977;44.816;20.538;2023-03-26T05:02:57;6.38;;;2.85;;
66175;SDS011;52977;44.816;20.538;2023-03-26T05:05:24;5.30;;;2.47;;
66175;SDS011;52977;44.816;20.538;2023-03-26T05:07:52;6.10;;;3.17;;
66175;SDS011;52977;44.816;20.538;2023-03-26T05:10:19;6.93;;;2.72;;
66175;SDS011;52977;44.816;20.538;2023-03-26T05:12:56;5.50;;;2.80;;
66175;SDS011;52977;44.816;20.538;2023-03-26T05:15:25;7.30;;;3.20;;
66175;SDS011;52977;44.816;20.538;2023-03-26T05:18:20;6.38;;;3.15;;
66175;SDS011;52977;44.816;20.538;2023-03-26T05:20:49;7.25;;;2.95;;
66175;SDS011;52977;44.816;20.538;2023-03-26T05:23:16;6.68;;;2.80;;
66175;SDS011;52977;44.816;20.538;2023-03-26T05:25:51;6.97;;;3.13;;
66175;SDS011;52977;44.816;20.538;2023-03-26T05:28:19;5.90;;;2.92;;
66175;SDS011;52977;44.816;20.538;2023-03-26T05:30:57;6.60;;;3.00;;
66175;SDS011;52977;44.816;20.538;2023-03-26T05:33:30;8.55;;;3.40;;
66175;SDS011;52977;44.816;20.538;2023-03-26T05:36:04;7.85;;;3.13;;
66175;SDS011;52977;44.816;20.538;2023-03-26T05:38:37;6.35;;;3.30;;
66175;SDS011;52977;44.816;20.538;2023-03-26T05:41:06;6.25;;;3.15;;
66175;SDS011;52977;44.816;20.538;2023-03-26T05:43:36;5.20;;;2.83;;
66175;SDS011;52977;44.816;20.538;2023-03-26T05:46:14;7.10;;;3.00;;
66175;SDS011;52977;44.816;20.538;2023-03-26T05:48:40;8.07;;;3.08;;
66175;SDS011;52977;44.816;20.538;2023-03-26T05:51:06;7.20;;;3.17;;
66175;SDS011;52977;44.816;20.538;2023-03-26T05:53:33;6.00;;;3.10;;
66175;SDS011;52977;44.816;20.538;2023-03-26T05:56:17;5.70;;;2.58;;
66175;SDS011;52977;44.816;20.538;2023-03-26T05:59:03;5.40;;;2.67;;
66175;SDS011;52977;44.816;20.538;2023-03-26T06:01:47;6.38;;;2.38;;
66175;SDS011;52977;44.816;20.538;2023-03-26T06:04:33;9.85;;;3.40;;
66175;SDS011;52977;44.816;20.538;2023-03-26T06:07:22;7.13;;;3.10;;
66175;SDS011;52977;44.816;20.538;2023-03-26T06:10:06;7.30;;;3.53;;
66175;SDS011;52977;44.816;20.538;2023-03-26T06:12:34;5.35;;;2.67;;
66175;SDS011;52977;44.816;20.538;2023-03-26T06:15:01;7.05;;;2.60;;
66175;SDS011;52977;44.816;20.538;2023-03-26T06:17:43;6.95;;;3.20;;
66175;SDS011;52977;44.816;20.538;2023-03-26T06:20:27;7.70;;;3.85;;
66175;SDS011;52977;44.816;20.538;2023-03-26T06:22:54;9.20;;;3.83;;
66175;SDS011;52977;44.816;20.538;2023-03-26T06:25:31;6.68;;;3.60;;
66175;SDS011;52977;44.816;20.538;2023-03-26T06:28:15;6.10;;;3.28;;
66175;SDS011;52977;44.816;20.538;2023-03-26T06:31:13;6.43;;;3.17;;
66175;SDS011;52977;44.816;20.538;2023-03-26T06:33:48;7.28;;;3.40;;
66175;SDS011;52977;44.816;20.538;2023-03-26T06:36:13;6.70;;;3.10;;
66175;SDS011;52977;44.816;20.538;2023-03-26T06:38:39;6.05;;;3.05;;
66175;SDS011;52977;44.816;20.538;2023-03-26T06:41:06;7.43;;;3.65;;
66175;SDS011;52977;44.816;20.538;2023-03-26T06:43:50;8.60;;;4.50;;
66175;SDS011;52977;44.816;20.538;2023-03-26T06:46:55;7.95;;;3.22;;
66175;SDS011;52977;44.816;20.538;2023-03-26T06:50:00;6.78;;;3.33;;
66175;SDS011;52977;44.816;20.538;2023-03-26T06:52:26;10.23;;;4.13;;
66175;SDS011;52977;44.816;20.538;2023-03-26T06:55:21;7.22;;;3.33;;
66175;SDS011;52977;44.816;20.538;2023-03-26T06:58:23;8.10;;;3.28;;
66175;SDS011;52977;44.816;20.538;2023-03-26T07:01:08;7.28;;;2.90;;
66175;SDS011;52977;44.816;20.538;2023-03-26T07:03:53;9.10;;;3.90;;
66175;SDS011;52977;44.816;20.538;2023-03-26T07:06:49;9.10;;;3.63;;
66175;SDS011;52977;44.816;20.538;2023-03-26T07:09:47;9.32;;;3.88;;
66175;SDS011;52977;44.816;20.538;2023-03-26T07:12:43;8.23;;;4.10;;
66175;SDS011;52977;44.816;20.538;2023-03-26T07:15:28;11.48;;;4.35;;
66175;SDS011;52977;44.816;20.538;2023-03-26T07:17:57;7.32;;;3.33;;
66175;SDS011;52977;44.816;20.538;2023-03-26T07:20:27;7.35;;;3.50;;
66175;SDS011;52977;44.816;20.538;2023-03-26T07:22:54;6.40;;;2.92;;
66175;SDS011;52977;44.816;20.538;2023-03-26T07:25:52;7.28;;;3.00;;
66175;SDS011;52977;44.816;20.538;2023-03-26T07:31:54;4.63;;;1.95;;
66175;SDS011;52977;44.816;20.538;2023-03-26T07:34:45;4.43;;;1.70;;
66175;SDS011;52977;44.816;20.538;2023-03-26T07:40:16;7.57;;;2.90;;
66175;SDS011;52977;44.816;20.538;2023-03-26T07:46:09;7.20;;;3.10;;
66175;SDS011;52977;44.816;20.538;2023-03-26T07:48:50;9.95;;;3.25;;
66175;SDS011;52977;44.816;20.538;2023-03-26T07:51:50;4.00;;;1.98;;
66175;SDS011;52977;44.816;20.538;2023-03-26T08:00:29;4.88;;;1.85;;
66175;SDS011;52977;44.816;20.538;2023-03-26T08:06:27;4.03;;;1.63;;
66175;SDS011;52977;44.816;20.538;2023-03-26T08:09:20;4.93;;;2.13;;
66175;SDS011;52977;44.816;20.538;2023-03-26T08:17:51;7.55;;;3.10;;
66175;SDS011;52977;44.816;20.538;2023-03-26T08:23:01;8.20;;;2.65;;
66175;SDS011;52977;44.816;20.538;2023-03-26T08:25:40;5.75;;;2.47;;
66175;SDS011;52977;44.816;20.538;2023-03-26T08:31:18;5.70;;;1.83;;
66175;SDS011;52977;44.816;20.538;2023-03-26T08:33:53;5.22;;;1.90;;
66175;SDS011;52977;44.816;20.538;2023-03-26T08:36:19;5.07;;;1.30;;
66175;SDS011;52977;44.816;20.538;2023-03-26T08:38:45;2.17;;;0.80;;
66175;SDS011;52977;44.816;20.538;2023-03-26T08:48:57;2.65;;;0.80;;
66175;SDS011;52977;44.816;20.538;2023-03-26T09:00:06;3.80;;;0.85;;
66175;SDS011;52977;44.816;20.538;2023-03-26T09:08:29;3.05;;;1.40;;
66175;SDS011;52977;44.816;20.538;2023-03-26T09:16:54;7.07;;;2.90;;
66175;SDS011;52977;44.816;20.538;2023-03-26T09:19:35;5.00;;;2.00;;
66175;SDS011;52977;44.816;20.538;2023-03-26T09:31:30;3.58;;;1.40;;
66175;SDS011;52977;44.816;20.538;2023-03-26T09:34:25;2.47;;;1.00;;
66175;SDS011;52977;44.816;20.538;2023-03-26T09:45:25;5.47;;;1.70;;
66175;SDS011;52977;44.816;20.538;2023-03-26T09:50:49;3.67;;;1.50;;
66175;SDS011;52977;44.816;20.538;2023-03-26T09:53:33;3.90;;;1.42;;
66175;SDS011;52977;44.816;20.538;2023-03-26T10:01:38;2.72;;;1.30;;
66175;SDS011;52977;44.816;20.538;2023-03-26T10:07:06;7.03;;;2.10;;
66175;SDS011;52977;44.816;20.538;2023-03-26T10:10:06;5.90;;;1.50;;
66175;SDS011;52977;44.816;20.538;2023-03-26T10:12:49;3.88;;;1.05;;
66175;SDS011;52977;44.816;20.538;2023-03-26T10:26:30;3.35;;;1.30;;
66175;SDS011;52977;44.816;20.538;2023-03-26T10:40:23;3.20;;;1.02;;
66175;SDS011;52977;44.816;20.538;2023-03-26T10:45:29;3.65;;;1.42;;
66175;SDS011;52977;44.816;20.538;2023-03-26T10:56:31;3.60;;;1.23;;
66175;SDS011;52977;44.816;20.538;2023-03-26T10:59:11;4.28;;;1.40;;
66175;SDS011;52977;44.816;20.538;2023-03-26T11:06:52;2.58;;;1.00;;
66175;SDS011;52977;44.816;20.538;2023-03-26T11:15:27;3.47;;;1.30;;
66175;SDS011;52977;44.816;20.538;2023-03-26T11:26:26;7.97;;;3.20;;
66175;SDS011;52977;44.816;20.538;2023-03-26T11:35:04;7.15;;;3.10;;
66175;SDS011;52977;44.816;20.538;2023-03-26T11:37:43;2.65;;;1.10;;
66175;SDS011;52977;44.816;20.538;2023-03-26T11:40:13;3.17;;;1.20;;
66175;SDS011;52977;44.816;20.538;2023-03-26T11:42:45;5.25;;;1.50;;
66175;SDS011;52977;44.816;20.538;2023-03-26T11:45:18;3.75;;;1.20;;
66175;SDS011;52977;44.816;20.538;2023-03-26T11:47:49;3.17;;;1.30;;
66175;SDS011;52977;44.816;20.538;2023-03-26T11:50:24;3.60;;;0.95;;
66175;SDS011;52977;44.816;20.538;2023-03-26T11:52:56;4.32;;;1.23;;
66175;SDS011;52977;44.816;20.538;2023-03-26T11:55:27;5.00;;;2.20;;
66175;SDS011;52977;44.816;20.538;2023-03-26T11:57:56;6.13;;;3.42;;
66175;SDS011;52977;44.816;20.538;2023-03-26T12:00:24;6.63;;;3.30;;
66175;SDS011;52977;44.816;20.538;2023-03-26T12:02:57;6.72;;;2.63;;
66175;SDS011;52977;44.816;20.538;2023-03-26T12:05:27;5.30;;;1.70;;
66175;SDS011;52977;44.816;20.538;2023-03-26T12:08:01;4.55;;;1.85;;
66175;SDS011;52977;44.816;20.538;2023-03-26T12:10:38;2.83;;;1.30;;
66175;SDS011;52977;44.816;20.538;2023-03-26T12:15:58;3.95;;;1.23;;
66175;SDS011;52977;44.816;20.538;2023-03-26T12:18:30;3.58;;;1.00;;
66175;SDS011;52977;44.816;20.538;2023-03-26T12:21:01;3.20;;;1.20;;
66175;SDS011;52977;44.816;20.538;2023-03-26T12:26:27;2.70;;;1.10;;
66175;SDS011;52977;44.816;20.538;2023-03-26T12:29:10;2.10;;;0.90;;
66175;SDS011;52977;44.816;20.538;2023-03-26T12:31:44;2.03;;;1.10;;
66175;SDS011;52977;44.816;20.538;2023-03-26T12:34:15;5.55;;;1.63;;
66175;SDS011;52977;44.816;20.538;2023-03-26T12:36:52;2.50;;;1.10;;
66175;SDS011;52977;44.816;20.538;2023-03-26T12:39:34;5.22;;;2.08;;
66175;SDS011;52977;44.816;20.538;2023-03-26T12:42:02;2.42;;;1.00;;
66175;SDS011;52977;44.816;20.538;2023-03-26T12:44:35;3.75;;;1.30;;
66175;SDS011;52977;44.816;20.538;2023-03-26T12:49:39;3.72;;;1.10;;
66175;SDS011;52977;44.816;20.538;2023-03-26T12:52:23;4.93;;;1.45;;
66175;SDS011;52977;44.816;20.538;2023-03-26T12:55:06;4.45;;;0.85;;
66175;SDS011;52977;44.816;20.538;2023-03-26T12:57:46;5.80;;;1.92;;
66175;SDS011;52977;44.816;20.538;2023-03-26T13:00:24;3.38;;;1.00;;
66175;SDS011;52977;44.816;20.538;2023-03-26T13:03:09;3.03;;;1.10;;
66175;SDS011;52977;44.816;20.538;2023-03-26T13:05:40;1.95;;;0.85;;
66175;SDS011;52977;44.816;20.538;2023-03-26T13:08:22;1.70;;;0.88;;
66175;SDS011;52977;44.816;20.538;2023-03-26T13:11:09;3.33;;;1.00;;
66175;SDS011;52977;44.816;20.538;2023-03-26T13:18:49;5.47;;;1.60;;
66175;SDS011;52977;44.816;20.538;2023-03-26T13:30:19;4.75;;;1.48;;
66175;SDS011;52977;44.816;20.538;2023-03-26T13:35:15;3.28;;;1.20;;
66175;SDS011;52977;44.816;20.538;2023-03-26T13:48:35;2.03;;;0.95;;
66175;SDS011;52977;44.816;20.538;2023-03-26T13:51:11;3.45;;;1.02;;
66175;SDS011;52977;44.816;20.538;2023-03-26T13:54:00;2.47;;;1.00;;
66175;SDS011;52977;44.816;20.538;2023-03-26T13:56:37;5.47;;;1.30;;
66175;SDS011;52977;44.816;20.538;2023-03-26T14:00:08;2.15;;;0.98;;
66175;SDS011;52977;44.816;20.538;2023-03-26T14:02:09;8.68;;;4.43;;
66175;SDS011;52977;44.816;20.538;2023-03-26T14:04:43;4.43;;;1.85;;
66175;SDS011;52977;44.816;20.538;2023-03-26T14:07:45;3.45;;;1.35;;
66175;SDS011;52977;44.816;20.538;2023-03-26T14:41:18;5.35;;;2.33;;
66175;SDS011;52977;44.816;20.538;2023-03-26T14:51:46;4.50;;;1.70;;
66175;SDS011;52977;44.816;20.538;2023-03-26T14:54:29;5.47;;;1.63;;
66175;SDS011;52977;44.816;20.538;2023-03-26T15:41:21;3.47;;;1.52;;
66175;SDS011;52977;44.816;20.538;2023-03-26T15:51:25;5.63;;;2.05;;
66175;SDS011;52977;44.816;20.538;2023-03-26T15:54:21;4.05;;;1.70;;
66175;SDS011;52977;44.816;20.538;2023-03-26T15:56:56;4.75;;;1.80;;
66175;SDS011;52977;44.816;20.538;2023-03-26T16:17:01;4.28;;;1.52;;
66175;SDS011;52977;44.816;20.538;2023-03-26T16:19:47;3.97;;;1.48;;
66175;SDS011;52977;44.816;20.538;2023-03-26T16:25:30;3.97;;;1.35;;
66175;SDS011;52977;44.816;20.538;2023-03-26T16:30:43;3.53;;;1.30;;
66175;SDS011;52977;44.816;20.538;2023-03-26T16:33:15;3.22;;;1.27;;
66175;SDS011;52977;44.816;20.538;2023-03-26T16:38:51;3.90;;;1.48;;
66175;SDS011;52977;44.816;20.538;2023-03-26T16:41:25;3.17;;;1.60;;
66175;SDS011;52977;44.816;20.538;2023-03-26T16:43:58;4.45;;;1.52;;
66175;SDS011;52977;44.816;20.538;2023-03-26T16:54:50;5.07;;;1.50;;
66175;SDS011;52977;44.816;20.538;2023-03-26T16:57:26;3.97;;;1.58;;
66175;SDS011;52977;44.816;20.538;2023-03-26T17:05:49;5.15;;;1.60;;
66175;SDS011;52977;44.816;20.538;2023-03-26T17:08:39;4.38;;;1.88;;
66175;SDS011;52977;44.816;20.538;2023-03-26T17:19:30;5.40;;;2.10;;
66175;SDS011;52977;44.816;20.538;2023-03-26T17:24:59;10.95;;;4.43;;
66175;SDS011;52977;44.816;20.538;2023-03-26T17:27:46;14.55;;;5.15;;
66175;SDS011;52977;44.816;20.538;2023-03-26T17:35:43;9.98;;;3.92;;
66175;SDS011;52977;44.816;20.538;2023-03-26T17:46:24;12.10;;;4.95;;
66175;SDS011;52977;44.816;20.538;2023-03-26T17:54:19;14.95;;;4.93;;
66175;SDS011;52977;44.816;20.538;2023-03-26T17:57:03;10.63;;;3.90;;
66175;SDS011;52977;44.816;20.538;2023-03-26T17:59:36;18.80;;;5.43;;
66175;SDS011;52977;44.816;20.538;2023-03-26T18:02:06;17.17;;;4.85;;
66175;SDS011;52977;44.816;20.538;2023-03-26T18:04:40;14.50;;;4.57;;
66175;SDS011;52977;44.816;20.538;2023-03-26T18:15:42;14.20;;;5.75;;
66175;SDS011;52977;44.816;20.538;2023-03-26T18:18:19;16.63;;;5.30;;
66175;SDS011;52977;44.816;20.538;2023-03-26T18:20:52;10.55;;;4.20;;
66175;SDS011;52977;44.816;20.538;2023-03-26T18:23:28;16.75;;;5.30;;
66175;SDS011;52977;44.816;20.538;2023-03-26T18:26:11;12.88;;;4.50;;
66175;SDS011;52977;44.816;20.538;2023-03-26T18:28:44;13.52;;;4.78;;
66175;SDS011;52977;44.816;20.538;2023-03-26T18:31:15;12.82;;;4.75;;
66175;SDS011;52977;44.816;20.538;2023-03-26T18:33:48;13.82;;;4.43;;
66175;SDS011;52977;44.816;20.538;2023-03-26T18:38:44;9.60;;;4.05;;
66175;SDS011;52977;44.816;20.538;2023-03-26T18:41:24;11.23;;;4.13;;
66175;SDS011;52977;44.816;20.538;2023-03-26T18:43:55;9.65;;;3.30;;
66175;SDS011;52977;44.816;20.538;2023-03-26T18:46:26;7.65;;;2.80;;
66175;SDS011;52977;44.816;20.538;2023-03-26T18:48:51;7.22;;;2.85;;
66175;SDS011;52977;44.816;20.538;2023-03-26T18:51:20;7.63;;;2.50;;
66175;SDS011;52977;44.816;20.538;2023-03-26T18:53:54;9.15;;;3.33;;
66175;SDS011;52977;44.816;20.538;2023-03-26T18:58:58;6.43;;;2.65;;
66175;SDS011;52977;44.816;20.538;2023-03-26T19:01:27;6.72;;;2.63;;
66175;SDS011;52977;44.816;20.538;2023-03-26T19:03:55;6.00;;;2.50;;
66175;SDS011;52977;44.816;20.538;2023-03-26T19:06:23;6.28;;;2.45;;
66175;SDS011;52977;44.816;20.538;2023-03-26T19:08:50;8.55;;;2.72;;
66175;SDS011;52977;44.816;20.538;2023-03-26T19:11:16;6.28;;;2.25;;
66175;SDS011;52977;44.816;20.538;2023-03-26T19:13:43;6.05;;;2.60;;
66175;SDS011;52977;44.816;20.538;2023-03-26T19:16:22;5.82;;;2.20;;
66175;SDS011;52977;44.816;20.538;2023-03-26T19:18:50;8.80;;;2.75;;
66175;SDS011;52977;44.816;20.538;2023-03-26T19:21:16;5.25;;;2.17;;
66175;SDS011;52977;44.816;20.538;2023-03-26T19:23:44;7.88;;;2.50;;
66175;SDS011;52977;44.816;20.538;2023-03-26T19:26:12;7.20;;;2.50;;
66175;SDS011;52977;44.816;20.538;2023-03-26T19:28:41;6.05;;;2.42;;
66175;SDS011;52977;44.816;20.538;2023-03-26T19:33:40;6.80;;;2.35;;
66175;SDS011;52977;44.816;20.538;2023-03-26T19:38:41;9.32;;;3.22;;
66175;SDS011;52977;44.816;20.538;2023-03-26T19:41:17;7.20;;;2.83;;
66175;SDS011;52977;44.816;20.538;2023-03-26T19:43:47;6.93;;;2.60;;
66175;SDS011;52977;44.816;20.538;2023-03-26T19:46:15;7.57;;;2.78;;
66175;SDS011;52977;44.816;20.538;2023-03-26T19:48:44;5.90;;;2.60;;
66175;SDS011;52977;44.816;20.538;2023-03-26T19:51:21;6.50;;;2.50;;
66175;SDS011;52977;44.816;20.538;2023-03-26T19:53:50;5.57;;;2.20;;
66175;SDS011;52977;44.816;20.538;2023-03-26T19:56:18;7.72;;;2.85;;
66175;SDS011;52977;44.816;20.538;2023-03-26T19:58:46;6.28;;;2.40;;
66175;SDS011;52977;44.816;20.538;2023-03-26T20:01:14;6.65;;;2.28;;
66175;SDS011;52977;44.816;20.538;2023-03-26T20:03:43;6.70;;;2.42;;
66175;SDS011;52977;44.816;20.538;2023-03-26T20:06:12;5.60;;;2.10;;
66175;SDS011;52977;44.816;20.538;2023-03-26T20:08:40;7.07;;;2.25;;
66175;SDS011;52977;44.816;20.538;2023-03-26T20:11:17;4.93;;;2.28;;
66175;SDS011;52977;44.816;20.538;2023-03-26T20:13:45;5.70;;;2.08;;
66175;SDS011;52977;44.816;20.538;2023-03-26T20:18:58;6.57;;;2.28;;
66175;SDS011;52977;44.816;20.538;2023-03-26T20:21:29;9.30;;;2.50;;
66175;SDS011;52977;44.816;20.538;2023-03-26T20:24:16;5.55;;;1.92;;
66175;SDS011;52977;44.816;20.538;2023-03-26T20:26:43;5.53;;;2.08;;
66175;SDS011;52977;44.816;20.538;2023-03-26T20:29:13;6.28;;;1.85;;
66175;SDS011;52977;44.816;20.538;2023-03-26T20:31:40;7.45;;;2.00;;
66175;SDS011;52977;44.816;20.538;2023-03-26T20:34:17;5.32;;;1.98;;
66175;SDS011;52977;44.816;20.538;2023-03-26T20:36:45;4.65;;;1.98;;
66175;SDS011;52977;44.816;20.538;2023-03-26T20:39:11;6.15;;;1.98;;
66175;SDS011;52977;44.816;20.538;2023-03-26T20:41:40;5.13;;;1.83;;
66175;SDS011;52977;44.816;20.538;2023-03-26T20:44:18;4.97;;;2.10;;
66175;SDS011;52977;44.816;20.538;2023-03-26T20:46:46;6.38;;;2.42;;
66175;SDS011;52977;44.816;20.538;2023-03-26T20:49:13;5.25;;;1.90;;
66175;SDS011;52977;44.816;20.538;2023-03-26T20:51:40;8.32;;;2.75;;
66175;SDS011;52977;44.816;20.538;2023-03-26T20:54:12;6.28;;;2.53;;
66175;SDS011;52977;44.816;20.538;2023-03-26T20:56:41;7.55;;;2.75;;
66175;SDS011;52977;44.816;20.538;2023-03-26T20:59:08;7.32;;;2.42;;
66175;SDS011;52977;44.816;20.538;2023-03-26T21:01:35;4.50;;;1.90;;
66175;SDS011;52977;44.816;20.538;2023-03-26T21:04:02;4.97;;;2.17;;
66175;SDS011;52977;44.816;20.538;2023-03-26T21:06:28;6.97;;;2.63;;
66175;SDS011;52977;44.816;20.538;2023-03-26T21:08:54;5.78;;;1.90;;
66175;SDS011;52977;44.816;20.538;2023-03-26T21:14:32;6.10;;;2.60;;
66175;SDS011;52977;44.816;20.538;2023-03-26T21:17:07;7.00;;;2.28;;
66175;SDS011;52977;44.816;20.538;2023-03-26T21:19:39;6.72;;;2.35;;
66175;SDS011;52977;44.816;20.538;2023-03-26T21:24:41;6.82;;;2.45;;
66175;SDS011;52977;44.816;20.538;2023-03-26T21:27:26;8.05;;;2.35;;
66175;SDS011;52977;44.816;20.538;2023-03-26T21:30:04;6.05;;;2.47;;
66175;SDS011;52977;44.816;20.538;2023-03-26T21:32:35;7.35;;;2.75;;
66175;SDS011;52977;44.816;20.538;2023-03-26T21:35:02;5.35;;;2.38;;
66175;SDS011;52977;44.816;20.538;2023-03-26T21:37:29;4.88;;;2.30;;
66175;SDS011;52977;44.816;20.538;2023-03-26T21:39:55;4.93;;;2.00;;
66175;SDS011;52977;44.816;20.538;2023-03-26T21:42:22;5.32;;;2.28;;
66175;SDS011;52977;44.816;20.538;2023-03-26T21:44:51;6.78;;;2.10;;
66175;SDS011;52977;44.816;20.538;2023-03-26T21:47:17;5.97;;;2.22;;
66175;SDS011;52977;44.816;20.538;2023-03-26T21:49:43;7.07;;;2.50;;